Time;durP1;ratioP1;P1;durP2;ratioP2;P2;SDS_P1;SDS_P2;PMS_P1;PMS_P2;Temp;Humidity;BMP_temperature;BMP_pressure;BME280_temperature;BME280_humidity;BME280_pressure;Samples;Min_cycle;Max_cycle;Signal;HPM_P1;HPM_P2
2023/04/10 00:00:25;;;;;;;141.07;55.33;;;;;;;;;;10529642;28;20039;-82
2023/04/10 00:05:26;;;;;;;152.33;56.30;;;;;;;;;;10530854;28;20040;-82
2023/04/10 00:10:29;;;;;;;149.57;57.37;;;;;;;;;;10512257;28;20101;-82
2023/04/10 00:15:30;;;;;;;148.73;54.63;;;;;;;;;;10529626;28;20516;-81
2023/04/10 00:20:31;;;;;;;153.47;52.27;;;;;;;;;;10530714;28;20105;-82
2023/04/10 00:25:32;;;;;;;158.33;53.13;;;;;;;;;;10529790;28;20028;-81
2023/04/10 00:30:33;;;;;;;148.97;52.07;;;;;;;;;;10528259;28;20382;-81
2023/04/10 00:35:34;;;;;;;158.17;52.90;;;;;;;;;;10529983;28;20085;-81
2023/04/10 00:40:35;;;;;;;157.07;53.33;;;;;;;;;;10529640;28;20031;-82
2023/04/10 00:45:36;;;;;;;164.80;56.03;;;;;;;;;;10528319;28;20114;-82
2023/04/10 00:50:37;;;;;;;177.57;61.33;;;;;;;;;;10529524;28;20036;-82
2023/04/10 00:55:38;;;;;;;176.77;57.10;;;;;;;;;;10509537;28;20108;-82
2023/04/10 01:00:40;;;;;;;164.23;55.03;;;;;;;;;;10528216;28;20050;-81
2023/04/10 01:05:44;;;;;;;180.00;59.20;;;;;;;;;;10492331;28;20059;-81
2023/04/10 01:10:51;;;;;;;238.67;67.10;;;;;;;;;;10468285;28;20063;-82
2023/04/10 01:15:57;;;;;;;290.73;71.53;;;;;;;;;;10485945;28;20028;-81
2023/04/10 01:20:59;;;;;;;183.90;53.90;;;;;;;;;;10473424;28;20028;-82
2023/04/10 01:26:03;;;;;;;194.00;58.00;;;;;;;;;;10486091;28;20035;-82
2023/04/10 01:31:06;;;;;;;281.73;70.27;;;;;;;;;;10485636;28;20755;-82
2023/04/10 01:36:07;;;;;;;286.40;72.00;;;;;;;;;;10485416;28;20032;-81
2023/04/10 01:41:08;;;;;;;229.33;64.13;;;;;;;;;;10489464;28;20054;-82
2023/04/10 01:46:11;;;;;;;374.37;86.90;;;;;;;;;;10486141;28;20145;-81
2023/04/10 01:51:13;;;;;;;228.17;64.37;;;;;;;;;;10518246;28;20041;-82
2023/04/10 01:56:14;;;;;;;257.57;67.23;;;;;;;;;;10486018;28;20050;-82
2023/04/10 02:01:19;;;;;;;338.93;75.13;;;;;;;;;;10488124;28;20472;-82
2023/04/10 02:06:36;;;;;;;307.47;71.80;;;;;;;;;;10520109;28;20091;-82
2023/04/10 02:11:37;;;;;;;;;;;;;;;;;;10486473;28;20361;-82
2023/04/10 02:16:39;;;;;;;290.80;71.53;;;;;;;;;;10497482;28;20566;-81
2023/04/10 02:21:41;;;;;;;231.03;59.87;;;;;;;;;;10504444;28;20028;-82
2023/04/10 02:26:48;;;;;;;253.90;64.90;;;;;;;;;;10525517;28;20093;-82
2023/04/10 02:31:50;;;;;;;387.97;84.97;;;;;;;;;;10525514;28;20032;-84
2023/04/10 02:36:51;;;;;;;258.10;61.87;;;;;;;;;;10525899;28;20043;-83
2023/04/10 02:41:52;;;;;;;368.40;82.83;;;;;;;;;;10528557;28;20036;-83
2023/04/10 02:46:53;;;;;;;410.40;87.23;;;;;;;;;;10466578;28;20036;-83
2023/04/10 02:51:54;;;;;;;345.40;73.87;;;;;;;;;;10487698;28;20026;-83
2023/04/10 02:56:56;;;;;;;394.60;83.30;;;;;;;;;;10494078;28;20064;-83
2023/04/10 03:01:57;;;;;;;398.53;87.13;;;;;;;;;;10489790;28;20551;-83
2023/04/10 03:06:58;;;;;;;327.80;77.17;;;;;;;;;;10528715;28;20238;-82
2023/04/10 03:12:00;;;;;;;473.27;101.03;;;;;;;;;;10533650;28;20110;-82
2023/04/10 03:17:01;;;;;;;404.97;82.80;;;;;;;;;;10531764;28;20047;-83
2023/04/10 03:22:02;;;;;;;360.87;74.87;;;;;;;;;;10531777;28;20021;-83
2023/04/10 03:27:03;;;;;;;301.77;71.67;;;;;;;;;;10532199;28;20022;-82
2023/04/10 03:32:04;;;;;;;260.77;61.00;;;;;;;;;;10532382;28;20034;-83
2023/04/10 03:37:05;;;;;;;331.43;68.90;;;;;;;;;;10512411;28;20046;-82
2023/04/10 03:42:06;;;;;;;346.13;71.83;;;;;;;;;;10532780;28;20028;-82
2023/04/10 03:47:07;;;;;;;260.87;59.33;;;;;;;;;;10531270;28;20039;-82
2023/04/10 03:52:08;;;;;;;268.30;63.57;;;;;;;;;;10529667;28;20032;-82
2023/04/10 03:57:09;;;;;;;224.23;57.50;;;;;;;;;;10532033;28;20064;-82
2023/04/10 04:02:10;;;;;;;251.27;60.93;;;;;;;;;;10530802;28;20196;-83
2023/04/10 04:07:12;;;;;;;274.87;67.83;;;;;;;;;;10530890;28;20389;-83
2023/04/10 04:12:13;;;;;;;230.00;59.87;;;;;;;;;;10530750;28;20032;-82
2023/04/10 04:17:14;;;;;;;222.23;55.80;;;;;;;;;;10530513;28;20043;-81
2023/04/10 04:22:15;;;;;;;241.80;59.00;;;;;;;;;;10521421;28;20035;-82
2023/04/10 04:27:16;;;;;;;234.10;62.20;;;;;;;;;;10529731;28;20056;-82
2023/04/10 04:32:17;;;;;;;204.67;57.87;;;;;;;;;;10529588;28;20095;-82
2023/04/10 04:37:18;;;;;;;184.33;52.70;;;;;;;;;;10528366;28;20372;-82
2023/04/10 04:42:19;;;;;;;177.43;52.67;;;;;;;;;;10535897;28;20023;-81
2023/04/10 04:47:20;;;;;;;182.73;53.40;;;;;;;;;;10518246;28;20028;-82
2023/04/10 04:52:22;;;;;;;217.80;67.27;;;;;;;;;;10527507;28;20414;-83
2023/04/10 04:57:23;;;;;;;229.67;74.73;;;;;;;;;;10528792;28;20085;-81
2023/04/10 05:02:24;;;;;;;198.33;56.30;;;;;;;;;;10520674;28;20139;-83
2023/04/10 05:07:25;;;;;;;203.80;59.50;;;;;;;;;;10528601;28;20031;-82
2023/04/10 05:12:26;;;;;;;179.37;52.67;;;;;;;;;;10528751;28;20039;-82
2023/04/10 05:17:27;;;;;;;192.33;54.97;;;;;;;;;;10526806;28;20486;-83
2023/04/10 05:22:28;;;;;;;206.40;50.73;;;;;;;;;;10515414;28;20139;-82
2023/04/10 05:27:29;;;;;;;200.60;55.10;;;;;;;;;;10526451;28;20383;-82
2023/04/10 05:32:30;;;;;;;182.53;51.07;;;;;;;;;;10524824;28;20024;-80
2023/04/10 05:37:31;;;;;;;195.23;55.03;;;;;;;;;;10526693;28;20075;-82
2023/04/10 05:42:32;;;;;;;200.83;52.87;;;;;;;;;;10527548;28;20028;-80
2023/04/10 05:47:33;;;;;;;166.67;49.40;;;;;;;;;;10525696;28;20785;-81
2023/04/10 05:52:34;;;;;;;172.40;50.03;;;;;;;;;;10513846;28;20127;-80
2023/04/10 05:57:35;;;;;;;178.40;52.60;;;;;;;;;;10527955;28;20036;-81
2023/04/10 06:02:36;;;;;;;160.27;45.40;;;;;;;;;;10526319;28;20056;-80
2023/04/10 06:07:38;;;;;;;170.27;50.67;;;;;;;;;;10526219;28;20391;-80
2023/04/10 06:12:39;;;;;;;144.67;46.60;;;;;;;;;;10526204;28;20047;-80
2023/04/10 06:17:43;;;;;;;164.93;48.37;;;;;;;;;;10505338;28;20047;-80
2023/04/10 06:22:44;;;;;;;167.67;50.47;;;;;;;;;;10525095;28;20028;-80
2023/04/10 06:27:45;;;;;;;198.80;58.60;;;;;;;;;;10525914;28;20032;-81
2023/04/10 06:32:46;;;;;;;189.43;53.17;;;;;;;;;;10525470;28;20020;-80
2023/04/10 06:37:48;;;;;;;182.07;53.00;;;;;;;;;;10515750;28;20049;-82
2023/04/10 06:42:49;;;;;;;168.03;50.53;;;;;;;;;;10514008;28;20209;-83
2023/04/10 06:47:50;;;;;;;165.73;53.20;;;;;;;;;;10525089;28;20036;-82
2023/04/10 06:52:52;;;;;;;133.17;45.50;;;;;;;;;;10525787;28;20032;-80
2023/04/10 06:57:54;;;;;;;130.03;44.77;;;;;;;;;;10511293;28;20051;-78
2023/04/10 07:02:56;;;;;;;115.27;42.30;;;;;;;;;;10517290;28;20491;-80
2023/04/10 07:07:57;;;;;;;147.60;45.90;;;;;;;;;;10505236;28;20029;-79
2023/04/10 07:12:58;;;;;;;141.90;47.27;;;;;;;;;;10494042;28;20177;-79
2023/04/10 07:17:59;;;;;;;134.73;45.20;;;;;;;;;;10487606;28;20048;-83
2023/04/10 07:23:00;;;;;;;114.83;40.17;;;;;;;;;;10493538;28;20031;-82
2023/04/10 07:28:01;;;;;;;117.47;42.87;;;;;;;;;;10481302;28;20144;-80
2023/04/10 07:33:06;;;;;;;112.07;38.27;;;;;;;;;;10517333;28;20020;-83
2023/04/10 07:38:07;;;;;;;106.60;39.60;;;;;;;;;;10494412;28;20040;-83
2023/04/10 07:43:07;;;;;;;103.00;36.77;;;;;;;;;;10487686;28;20039;-80
2023/04/10 07:48:09;;;;;;;103.23;39.33;;;;;;;;;;10493828;28;20124;-79
2023/04/10 07:53:10;;;;;;;102.63;39.60;;;;;;;;;;10489667;28;20508;-79
2023/04/10 07:58:11;;;;;;;110.23;38.97;;;;;;;;;;10472334;28;20040;-80
2023/04/10 08:03:12;;;;;;;110.13;39.83;;;;;;;;;;10500960;28;20055;-80
2023/04/10 08:08:14;;;;;;;112.53;39.20;;;;;;;;;;10476081;28;20032;-79
2023/04/10 08:13:15;;;;;;;106.47;37.83;;;;;;;;;;10489612;28;20024;-78
2023/04/10 08:18:16;;;;;;;105.17;40.13;;;;;;;;;;10497361;28;20640;-78
2023/04/10 08:23:17;;;;;;;100.30;38.63;;;;;;;;;;10489605;28;20028;-80
2023/04/10 08:28:20;;;;;;;82.57;38.40;;;;;;;;;;10489415;28;20047;-79
2023/04/10 08:33:21;;;;;;;84.68;35.28;;;;;;;;;;10485261;28;20426;-81
2023/04/10 08:38:23;;;;;;;70.93;32.15;;;;;;;;;;10488506;28;20036;-81
2023/04/10 08:43:26;;;;;;;67.53;30.15;;;;;;;;;;10487616;28;20519;-82
2023/04/10 08:48:30;;;;;;;66.70;29.60;;;;;;;;;;10498491;28;20032;-82
2023/04/10 08:53:35;;;;;;;65.72;27.88;;;;;;;;;;10488272;28;20036;-81
2023/04/10 08:58:36;;;;;;;75.32;29.90;;;;;;;;;;10500867;28;20044;-82
2023/04/10 09:03:37;;;;;;;77.43;34.95;;;;;;;;;;10494785;28;20503;-81
2023/04/10 09:08:38;;;;;;;84.03;33.83;;;;;;;;;;10485824;28;20774;-80
2023/04/10 09:13:39;;;;;;;84.85;34.65;;;;;;;;;;10489819;28;20035;-81
2023/04/10 09:18:41;;;;;;;81.93;32.33;;;;;;;;;;10503949;28;20565;-80
2023/04/10 09:23:43;;;;;;;75.13;31.63;;;;;;;;;;10490477;28;20028;-80
2023/04/10 09:28:57;;;;;;;69.95;30.55;;;;;;;;;;10490303;28;20028;-80
2023/04/10 09:34:14;;;;;;;82.68;35.83;;;;;;;;;;10466483;28;20033;-80
2023/04/10 09:39:15;;;;;;;71.57;30.52;;;;;;;;;;10477436;28;20115;-80
2023/04/10 09:44:18;;;;;;;75.60;35.15;;;;;;;;;;10485035;28;20386;-81
2023/04/10 09:49:19;;;;;;;64.80;27.67;;;;;;;;;;10497727;28;20024;-79
2023/04/10 09:54:35;;;;;;;70.53;28.67;;;;;;;;;;10494162;28;20012;-79
2023/04/10 09:59:38;;;;;;;75.30;30.80;;;;;;;;;;10485223;28;20046;-79
2023/04/10 10:04:40;;;;;;;71.75;28.48;;;;;;;;;;10506357;28;20064;-80
2023/04/10 10:09:42;;;;;;;70.72;30.50;;;;;;;;;;10486727;28;20602;-81
2023/04/10 10:15:03;;;;;;;63.72;26.48;;;;;;;;;;10485218;28;20036;-79
2023/04/10 10:20:08;;;;;;;68.47;29.60;;;;;;;;;;10487410;28;20360;-81
2023/04/10 10:25:09;;;;;;;72.72;31.30;;;;;;;;;;10485915;28;20031;-80
2023/04/10 10:30:11;;;;;;;70.93;30.27;;;;;;;;;;10480797;28;20036;-79
2023/04/10 10:35:13;;;;;;;72.60;32.42;;;;;;;;;;10471232;28;20413;-81
2023/04/10 10:40:23;;;;;;;71.18;29.50;;;;;;;;;;10481380;28;20039;-81
2023/04/10 10:45:32;;;;;;;71.13;31.77;;;;;;;;;;10473043;28;20029;-79
2023/04/10 10:50:52;;;;;;;71.15;32.22;;;;;;;;;;10469748;28;20101;-79
2023/04/10 10:55:53;;;;;;;72.40;30.63;;;;;;;;;;10484204;28;20024;-80
2023/04/10 11:00:57;;;;;;;64.90;30.92;;;;;;;;;;10492834;28;20439;-79
2023/04/10 11:05:58;;;;;;;53.08;25.27;;;;;;;;;;10532664;28;20046;-82
2023/04/10 11:11:04;;;;;;;59.65;28.73;;;;;;;;;;10526002;28;20063;-80
2023/04/10 11:16:05;;;;;;;;;;;;;;;;;;10530855;28;20044;-82
2023/04/10 11:21:10;;;;;;;39.17;20.63;;;;;;;;;;10531478;28;19915;-80
2023/04/10 11:26:11;;;;;;;50.40;23.83;;;;;;;;;;10523634;28;20020;-80
2023/04/10 11:31:22;;;;;;;45.65;23.20;;;;;;;;;;10521504;28;20020;-81
2023/04/10 11:36:23;;;;;;;41.05;21.77;;;;;;;;;;10527144;28;20059;-80
2023/04/10 11:41:29;;;;;;;42.45;21.83;;;;;;;;;;10521352;28;20028;-80
2023/04/10 11:46:30;;;;;;;44.45;22.45;;;;;;;;;;10500282;28;20043;-81
2023/04/10 11:51:32;;;;;;;46.10;22.92;;;;;;;;;;10489482;28;20035;-82
2023/04/10 11:56:33;;;;;;;47.40;23.88;;;;;;;;;;10510441;28;20044;-81
2023/04/10 12:01:34;;;;;;;45.53;26.38;;;;;;;;;;10529486;28;20055;-82
2023/04/10 12:06:35;;;;;;;45.15;23.30;;;;;;;;;;10489639;28;20040;-81
2023/04/10 12:11:36;;;;;;;42.22;22.63;;;;;;;;;;10489074;28;20055;-81
2023/04/10 12:16:37;;;;;;;46.75;27.05;;;;;;;;;;10483933;28;20155;-82
2023/04/10 12:21:41;;;;;;;49.65;26.23;;;;;;;;;;10483636;28;20043;-81
2023/04/10 12:26:49;;;;;;;41.58;24.30;;;;;;;;;;10486780;28;20056;-83
2023/04/10 12:31:50;;;;;;;35.78;19.08;;;;;;;;;;10483587;28;20060;-81
2023/04/10 12:36:52;;;;;;;27.95;16.70;;;;;;;;;;10488434;28;20029;-82
2023/04/10 12:41:54;;;;;;;35.13;19.58;;;;;;;;;;10487317;28;20027;-80
2023/04/10 12:47:00;;;;;;;30.00;18.25;;;;;;;;;;10473630;28;20039;-80
2023/04/10 12:52:01;;;;;;;27.08;15.18;;;;;;;;;;10487081;28;20488;-81
2023/04/10 12:57:03;;;;;;;29.70;16.35;;;;;;;;;;10487175;28;20044;-80
2023/04/10 13:02:04;;;;;;;35.45;20.05;;;;;;;;;;10501318;28;20101;-80
2023/04/10 13:07:05;;;;;;;32.90;20.52;;;;;;;;;;10527919;28;20089;-79
2023/04/10 13:12:06;;;;;;;35.78;20.95;;;;;;;;;;10527742;28;20032;-80
2023/04/10 13:17:07;;;;;;;35.97;20.23;;;;;;;;;;10527197;28;20067;-80
2023/04/10 13:22:08;;;;;;;31.88;21.80;;;;;;;;;;10526918;28;20127;-82
2023/04/10 13:27:10;;;;;;;30.17;19.33;;;;;;;;;;10527678;28;20035;-81
2023/04/10 13:32:10;;;;;;;30.73;20.02;;;;;;;;;;10498952;28;20490;-80
2023/04/10 13:37:12;;;;;;;30.85;19.85;;;;;;;;;;10495718;28;20040;-81
2023/04/10 13:42:13;;;;;;;25.50;15.80;;;;;;;;;;10519242;28;20032;-80
2023/04/10 13:47:14;;;;;;;26.23;16.48;;;;;;;;;;10526253;28;20038;-81
2023/04/10 13:52:15;;;;;;;24.63;14.93;;;;;;;;;;10488444;28;20032;-81
2023/04/10 13:57:16;;;;;;;23.42;13.15;;;;;;;;;;10499776;28;20101;-80
2023/04/10 14:02:17;;;;;;;23.85;14.10;;;;;;;;;;10525469;28;20036;-81
2023/04/10 14:07:19;;;;;;;24.80;16.17;;;;;;;;;;10526597;28;20028;-79
2023/04/10 14:12:21;;;;;;;21.92;15.18;;;;;;;;;;10525628;28;20016;-80
2023/04/10 14:17:23;;;;;;;22.77;14.27;;;;;;;;;;10525978;28;20068;-79
2023/04/10 14:22:24;;;;;;;23.95;16.40;;;;;;;;;;10525175;28;20619;-79
2023/04/10 14:27:25;;;;;;;24.52;15.48;;;;;;;;;;10518143;28;20028;-79
2023/04/10 14:32:26;;;;;;;22.73;14.82;;;;;;;;;;10498561;28;20024;-79
2023/04/10 14:37:27;;;;;;;23.58;15.18;;;;;;;;;;10533532;28;20051;-79
2023/04/10 14:42:28;;;;;;;22.77;14.52;;;;;;;;;;10534585;28;20039;-79
2023/04/10 14:47:29;;;;;;;21.58;13.75;;;;;;;;;;10525915;28;20056;-79
2023/04/10 14:52:30;;;;;;;22.08;13.90;;;;;;;;;;10528313;28;20031;-80
2023/04/10 14:57:32;;;;;;;21.20;13.05;;;;;;;;;;10530149;28;20071;-79
2023/04/10 15:02:33;;;;;;;22.25;13.52;;;;;;;;;;10505617;28;20150;-80
2023/04/10 15:07:35;;;;;;;19.08;12.55;;;;;;;;;;10503622;28;20049;-79
2023/04/10 15:12:36;;;;;;;23.27;13.95;;;;;;;;;;10525785;28;20708;-80
2023/04/10 15:17:37;;;;;;;21.58;13.23;;;;;;;;;;10533040;28;20399;-80
2023/04/10 15:22:39;;;;;;;22.27;13.52;;;;;;;;;;10526944;28;20475;-80
2023/04/10 15:27:40;;;;;;;20.70;13.35;;;;;;;;;;10500208;28;20056;-79
2023/04/10 15:32:41;;;;;;;26.38;15.50;;;;;;;;;;10520910;28;20058;-79
2023/04/10 15:37:42;;;;;;;25.50;14.15;;;;;;;;;;10531678;28;20126;-79
2023/04/10 15:42:43;;;;;;;32.30;16.70;;;;;;;;;;10531730;28;20032;-83
2023/04/10 15:47:46;;;;;;;182.23;104.90;;;;;;;;;;10530889;28;20124;-83
2023/04/10 15:52:47;;;;;;;117.55;64.30;;;;;;;;;;10513631;28;20034;-84
2023/04/10 15:57:48;;;;;;;137.98;98.35;;;;;;;;;;10530512;28;20048;-84
2023/04/10 16:02:49;;;;;;;16.10;9.52;;;;;;;;;;10512085;28;20546;-83
2023/04/10 16:07:50;;;;;;;34.05;20.88;;;;;;;;;;10509881;28;20491;-84
2023/04/10 16:12:51;;;;;;;19.27;9.07;;;;;;;;;;10530147;28;20024;-84
2023/04/10 16:17:52;;;;;;;464.73;224.80;;;;;;;;;;10532550;28;20032;-84
2023/04/10 16:22:53;;;;;;;519.15;245.38;;;;;;;;;;10512037;28;20657;-83
2023/04/10 16:27:54;;;;;;;210.05;102.57;;;;;;;;;;10504367;28;20036;-84
2023/04/10 16:32:55;;;;;;;25.63;13.77;;;;;;;;;;10494906;28;20024;-82
2023/04/10 16:37:56;;;;;;;24.23;12.55;;;;;;;;;;10521445;28;20024;-82
2023/04/10 16:42:59;;;;;;;22.33;9.98;;;;;;;;;;10526464;28;20093;-82
2023/04/10 16:48:00;;;;;;;22.00;10.48;;;;;;;;;;10528319;28;20024;-81
2023/04/10 16:53:01;;;;;;;22.65;11.50;;;;;;;;;;10529229;28;20027;-81
2023/04/10 16:58:02;;;;;;;24.85;11.20;;;;;;;;;;10527258;28;20036;-81
2023/04/10 17:03:03;;;;;;;19.73;10.52;;;;;;;;;;10510049;28;20731;-83
2023/04/10 17:08:04;;;;;;;23.15;11.32;;;;;;;;;;10487379;28;20086;-79
2023/04/10 17:13:05;;;;;;;35.70;14.65;;;;;;;;;;10486528;28;20028;-79
2023/04/10 17:18:06;;;;;;;25.27;12.43;;;;;;;;;;10487575;28;20039;-80
2023/04/10 17:23:07;;;;;;;23.77;12.93;;;;;;;;;;10486552;28;20791;-80
2023/04/10 17:28:07;;;;;;;23.50;12.93;;;;;;;;;;10450676;28;20037;-81
2023/04/10 17:33:09;;;;;;;27.93;13.80;;;;;;;;;;10470718;28;20033;-81
2023/04/10 17:38:10;;;;;;;30.30;14.87;;;;;;;;;;10483778;28;20218;-80
2023/04/10 17:43:11;;;;;;;27.97;13.43;;;;;;;;;;10487748;28;20024;-81
2023/04/10 17:48:11;;;;;;;27.13;14.20;;;;;;;;;;10494547;28;20074;-81
2023/04/10 17:53:12;;;;;;;38.73;19.17;;;;;;;;;;10485228;28;20391;-80
2023/04/10 17:58:13;;;;;;;45.83;19.77;;;;;;;;;;10467235;28;20575;-79
2023/04/10 18:03:14;;;;;;;87.03;35.03;;;;;;;;;;10503767;28;20043;-80
2023/04/10 18:08:15;;;;;;;113.10;54.17;;;;;;;;;;10525194;28;20036;-80
2023/04/10 18:13:16;;;;;;;149.73;68.93;;;;;;;;;;10525914;28;20024;-81
2023/04/10 18:18:17;;;;;;;206.00;78.03;;;;;;;;;;10523300;28;20044;-82
2023/04/10 18:23:18;;;;;;;245.83;94.77;;;;;;;;;;10526078;28;20028;-81
2023/04/10 18:28:20;;;;;;;156.77;68.77;;;;;;;;;;10517151;28;20028;-83
2023/04/10 18:33:22;;;;;;;167.03;70.80;;;;;;;;;;10514240;28;20084;-79
2023/04/10 18:38:24;;;;;;;168.07;69.63;;;;;;;;;;10524021;28;20395;-80
2023/04/10 18:43:29;;;;;;;174.47;66.53;;;;;;;;;;10521213;28;20043;-81
2023/04/10 18:48:30;;;;;;;189.33;74.37;;;;;;;;;;10523124;28;20036;-80
2023/04/10 18:53:31;;;;;;;200.33;74.73;;;;;;;;;;10523898;28;20594;-82
2023/04/10 18:58:33;;;;;;;216.60;74.17;;;;;;;;;;10523094;28;20043;-80
2023/04/10 19:03:35;;;;;;;444.37;109.30;;;;;;;;;;10498857;28;20044;-80
2023/04/10 19:08:36;;;;;;;151.43;65.73;;;;;;;;;;10489792;28;20146;-79
2023/04/10 19:13:38;;;;;;;138.13;70.17;;;;;;;;;;10483892;28;20029;-79
2023/04/10 19:18:39;;;;;;;151.87;76.37;;;;;;;;;;10485631;28;20927;-79
2023/04/10 19:23:43;;;;;;;190.00;92.07;;;;;;;;;;10505271;28;20038;-80
2023/04/10 19:28:46;;;;;;;147.37;78.47;;;;;;;;;;10504793;28;20021;-80
2023/04/10 19:33:47;;;;;;;134.10;65.27;;;;;;;;;;10520495;28;20028;-81
2023/04/10 19:38:49;;;;;;;151.03;62.57;;;;;;;;;;10483409;28;20542;-82
2023/04/10 19:43:52;;;;;;;226.63;76.13;;;;;;;;;;10496102;28;20070;-81
2023/04/10 19:48:53;;;;;;;184.73;72.07;;;;;;;;;;10501611;28;20024;-81
2023/04/10 19:53:54;;;;;;;415.57;122.57;;;;;;;;;;10488724;28;20036;-82
2023/04/10 19:58:55;;;;;;;1571.70;313.27;;;;;;;;;;10496085;28;20036;-81
2023/04/10 20:03:56;;;;;;;481.20;122.30;;;;;;;;;;10514273;28;20086;-81
2023/04/10 20:08:57;;;;;;;544.17;127.27;;;;;;;;;;10530097;28;20119;-81
2023/04/10 20:13:58;;;;;;;238.93;76.07;;;;;;;;;;10531724;28;20036;-82
2023/04/10 20:18:59;;;;;;;220.50;73.00;;;;;;;;;;10529822;28;20544;-82
2023/04/10 20:24:00;;;;;;;620.77;136.93;;;;;;;;;;10513070;28;20084;-82
2023/04/10 20:29:01;;;;;;;397.67;93.60;;;;;;;;;;10530757;28;20081;-81
2023/04/10 20:34:02;;;;;;;816.20;161.77;;;;;;;;;;10529942;28;20028;-82
2023/04/10 20:39:03;;;;;;;842.57;177.80;;;;;;;;;;10529805;28;20115;-81
2023/04/10 20:44:05;;;;;;;712.90;151.40;;;;;;;;;;10529903;28;20471;-82
2023/04/10 20:49:06;;;;;;;675.13;142.33;;;;;;;;;;10529367;28;20028;-81
2023/04/10 20:54:07;;;;;;;600.00;130.00;;;;;;;;;;10529005;28;20036;-81
2023/04/10 20:59:08;;;;;;;1332.73;274.07;;;;;;;;;;10529162;28;20050;-81
2023/04/10 21:04:09;;;;;;;657.70;153.23;;;;;;;;;;10528917;28;20517;-81
2023/04/10 21:09:10;;;;;;;382.27;116.83;;;;;;;;;;10527659;28;20036;-81
2023/04/10 21:14:12;;;;;;;459.07;128.07;;;;;;;;;;10528832;28;20053;-82
2023/04/10 21:19:13;;;;;;;415.80;115.50;;;;;;;;;;10527357;28;20550;-82
2023/04/10 21:24:14;;;;;;;833.40;174.00;;;;;;;;;;10529388;28;20035;-82
2023/04/10 21:29:15;;;;;;;590.93;151.10;;;;;;;;;;10528362;28;20056;-81
2023/04/10 21:34:16;;;;;;;492.93;137.53;;;;;;;;;;10527326;28;20102;-82
2023/04/10 21:39:17;;;;;;;637.47;160.40;;;;;;;;;;10527348;28;20051;-81
2023/04/10 21:44:18;;;;;;;611.57;142.07;;;;;;;;;;10509274;28;20086;-81
2023/04/10 21:49:19;;;;;;;463.37;130.13;;;;;;;;;;10527504;28;20701;-81
2023/04/10 21:54:20;;;;;;;1618.13;312.90;;;;;;;;;;10527462;28;20030;-81
2023/04/10 21:59:22;;;;;;;509.90;143.87;;;;;;;;;;10526869;28;20422;-81
2023/04/10 22:04:23;;;;;;;976.73;214.50;;;;;;;;;;10524582;28;20777;-82
2023/04/10 22:09:24;;;;;;;1140.57;227.50;;;;;;;;;;10526259;28;20114;-82
2023/04/10 22:14:25;;;;;;;1633.77;311.17;;;;;;;;;;10527984;28;20036;-83
2023/04/10 22:19:26;;;;;;;1025.77;197.27;;;;;;;;;;10507657;28;20127;-82
2023/04/10 22:24:27;;;;;;;900.63;202.37;;;;;;;;;;10526221;28;20026;-81
2023/04/10 22:29:30;;;;;;;1204.63;235.73;;;;;;;;;;10526420;28;20020;-81
2023/04/10 22:34:33;;;;;;;1221.50;227.53;;;;;;;;;;10539311;28;20028;-82
2023/04/10 22:39:34;;;;;;;1283.30;256.30;;;;;;;;;;10525888;28;20415;-81
2023/04/10 22:44:38;;;;;;;884.37;175.10;;;;;;;;;;10525756;28;20024;-82
2023/04/10 22:49:39;;;;;;;566.20;135.67;;;;;;;;;;10532400;28;20035;-82
2023/04/10 22:54:44;;;;;;;337.83;100.80;;;;;;;;;;10528634;28;20032;-81
2023/04/10 22:59:45;;;;;;;1026.53;215.60;;;;;;;;;;10530900;28;20039;-82
2023/04/10 23:04:46;;;;;;;563.37;126.90;;;;;;;;;;10534226;28;20048;-82
2023/04/10 23:09:47;;;;;;;458.93;104.60;;;;;;;;;;10532826;28;20356;-83
2023/04/10 23:14:48;;;;;;;1350.70;240.77;;;;;;;;;;10534056;28;20135;-82
2023/04/10 23:19:49;;;;;;;461.87;99.50;;;;;;;;;;10514835;28;20483;-82
2023/04/10 23:24:54;;;;;;;498.40;105.80;;;;;;;;;;10514132;28;20612;-82
2023/04/10 23:29:55;;;;;;;966.70;193.07;;;;;;;;;;10527934;28;20486;-82
2023/04/10 23:34:56;;;;;;;655.67;134.93;;;;;;;;;;10531297;28;20086;-82
2023/04/10 23:39:56;;;;;;;1359.00;259.93;;;;;;;;;;10531942;28;20032;-82
2023/04/10 23:44:57;;;;;;;733.43;145.57;;;;;;;;;;10532254;28;20024;-82
2023/04/10 23:49:58;;;;;;;398.87;91.23;;;;;;;;;;10531276;28;20028;-82
2023/04/10 23:54:59;;;;;;;658.67;143.43;;;;;;;;;;10531604;28;21062;-81
